sensor_id;sensor_type;location;lat;lon;timestamp;P1;durP1;ratioP1;P2;durP2;ratioP2
12707;SDS011;6418;50.824;4.718;2022-09-09T00:00:18;10.63;;;4.20;;
12707;SDS011;6418;50.824;4.718;2022-09-09T00:02:49;8.57;;;4.03;;
12707;SDS011;6418;50.824;4.718;2022-09-09T00:05:29;9.37;;;4.13;;
12707;SDS011;6418;50.824;4.718;2022-09-09T00:08:02;9.83;;;4.03;;
12707;SDS011;6418;50.824;4.718;2022-09-09T00:10:31;10.60;;;4.10;;
12707;SDS011;6418;50.824;4.718;2022-09-09T00:13:06;9.33;;;4.30;;
12707;SDS011;6418;50.824;4.718;2022-09-09T00:15:43;11.43;;;4.20;;
12707;SDS011;6418;50.824;4.718;2022-09-09T00:18:21;12.37;;;4.20;;
12707;SDS011;6418;50.824;4.718;2022-09-09T00:20:55;12.23;;;4.60;;
12707;SDS011;6418;50.824;4.718;2022-09-09T00:23:30;9.60;;;4.40;;
12707;SDS011;6418;50.824;4.718;2022-09-09T00:26:02;10.43;;;4.47;;
12707;SDS011;6418;50.824;4.718;2022-09-09T00:28:36;11.10;;;4.23;;
12707;SDS011;6418;50.824;4.718;2022-09-09T00:31:11;13.73;;;4.40;;
12707;SDS011;6418;50.824;4.718;2022-09-09T00:33:39;9.30;;;4.20;;
12707;SDS011;6418;50.824;4.718;2022-09-09T00:36:09;10.77;;;4.57;;
12707;SDS011;6418;50.824;4.718;2022-09-09T00:38:42;12.80;;;4.67;;
12707;SDS011;6418;50.824;4.718;2022-09-09T00:41:14;11.80;;;5.00;;
12707;SDS011;6418;50.824;4.718;2022-09-09T00:43:50;10.73;;;4.30;;
12707;SDS011;6418;50.824;4.718;2022-09-09T00:46:27;9.20;;;4.17;;
12707;SDS011;6418;50.824;4.718;2022-09-09T00:49:18;12.23;;;4.17;;
12707;SDS011;6418;50.824;4.718;2022-09-09T00:51:56;9.97;;;4.27;;
12707;SDS011;6418;50.824;4.718;2022-09-09T00:54:35;15.07;;;4.50;;
12707;SDS011;6418;50.824;4.718;2022-09-09T00:57:13;9.17;;;4.50;;
12707;SDS011;6418;50.824;4.718;2022-09-09T00:59:50;13.40;;;5.00;;
12707;SDS011;6418;50.824;4.718;2022-09-09T01:02:22;11.90;;;4.63;;
12707;SDS011;6418;50.824;4.718;2022-09-09T01:04:54;10.33;;;4.40;;
12707;SDS011;6418;50.824;4.718;2022-09-09T01:07:23;10.50;;;4.50;;
12707;SDS011;6418;50.824;4.718;2022-09-09T01:09:55;17.00;;;4.70;;
12707;SDS011;6418;50.824;4.718;2022-09-09T01:12:25;15.63;;;5.10;;
12707;SDS011;6418;50.824;4.718;2022-09-09T01:15:00;10.90;;;4.73;;
12707;SDS011;6418;50.824;4.718;2022-09-09T01:17:36;12.90;;;4.57;;
12707;SDS011;6418;50.824;4.718;2022-09-09T01:20:19;14.07;;;4.73;;
12707;SDS011;6418;50.824;4.718;2022-09-09T01:22:53;14.27;;;4.40;;
12707;SDS011;6418;50.824;4.718;2022-09-09T01:28:45;10.07;;;4.57;;
12707;SDS011;6418;50.824;4.718;2022-09-09T01:31:15;15.20;;;5.17;;
12707;SDS011;6418;50.824;4.718;2022-09-09T01:33:45;12.90;;;4.67;;
12707;SDS011;6418;50.824;4.718;2022-09-09T01:36:13;11.17;;;4.87;;
12707;SDS011;6418;50.824;4.718;2022-09-09T01:38:45;16.03;;;4.73;;
12707;SDS011;6418;50.824;4.718;2022-09-09T01:41:12;13.63;;;4.80;;
12707;SDS011;6418;50.824;4.718;2022-09-09T01:43:41;10.97;;;4.87;;
12707;SDS011;6418;50.824;4.718;2022-09-09T01:46:08;16.40;;;5.10;;
12707;SDS011;6418;50.824;4.718;2022-09-09T01:48:35;16.13;;;5.07;;
12707;SDS011;6418;50.824;4.718;2022-09-09T01:51:02;15.30;;;5.50;;
12707;SDS011;6418;50.824;4.718;2022-09-09T01:53:29;10.87;;;5.30;;
12707;SDS011;6418;50.824;4.718;2022-09-09T01:56:00;14.40;;;5.23;;
12707;SDS011;6418;50.824;4.718;2022-09-09T01:58:34;16.67;;;5.07;;
12707;SDS011;6418;50.824;4.718;2022-09-09T02:01:13;15.93;;;5.40;;
12707;SDS011;6418;50.824;4.718;2022-09-09T02:03:47;13.97;;;5.00;;
12707;SDS011;6418;50.824;4.718;2022-09-09T02:06:21;13.93;;;5.37;;
12707;SDS011;6418;50.824;4.718;2022-09-09T02:08:55;15.47;;;4.87;;
12707;SDS011;6418;50.824;4.718;2022-09-09T02:11:25;14.57;;;5.10;;
12707;SDS011;6418;50.824;4.718;2022-09-09T02:13:54;13.43;;;5.30;;
12707;SDS011;6418;50.824;4.718;2022-09-09T02:16:26;13.83;;;5.03;;
12707;SDS011;6418;50.824;4.718;2022-09-09T02:19:00;12.83;;;4.97;;
12707;SDS011;6418;50.824;4.718;2022-09-09T02:21:30;15.50;;;5.10;;
12707;SDS011;6418;50.824;4.718;2022-09-09T02:24:01;14.90;;;5.37;;
12707;SDS011;6418;50.824;4.718;2022-09-09T02:26:31;13.33;;;5.10;;
12707;SDS011;6418;50.824;4.718;2022-09-09T02:29:01;14.43;;;4.80;;
12707;SDS011;6418;50.824;4.718;2022-09-09T02:31:31;19.90;;;5.13;;
12707;SDS011;6418;50.824;4.718;2022-09-09T02:34:00;12.43;;;4.80;;
12707;SDS011;6418;50.824;4.718;2022-09-09T02:36:31;12.83;;;5.00;;
12707;SDS011;6418;50.824;4.718;2022-09-09T02:39:00;12.73;;;5.17;;
12707;SDS011;6418;50.824;4.718;2022-09-09T02:41:28;14.37;;;4.90;;
12707;SDS011;6418;50.824;4.718;2022-09-09T02:43:59;15.80;;;5.10;;
12707;SDS011;6418;50.824;4.718;2022-09-09T02:46:40;17.80;;;5.20;;
12707;SDS011;6418;50.824;4.718;2022-09-09T02:49:18;16.03;;;5.10;;
12707;SDS011;6418;50.824;4.718;2022-09-09T02:51:51;17.27;;;5.10;;
12707;SDS011;6418;50.824;4.718;2022-09-09T02:54:27;12.60;;;5.07;;
12707;SDS011;6418;50.824;4.718;2022-09-09T02:56:58;14.37;;;4.80;;
12707;SDS011;6418;50.824;4.718;2022-09-09T02:59:29;12.63;;;4.93;;
12707;SDS011;6418;50.824;4.718;2022-09-09T03:01:57;17.73;;;5.30;;
12707;SDS011;6418;50.824;4.718;2022-09-09T03:04:24;18.73;;;5.03;;
12707;SDS011;6418;50.824;4.718;2022-09-09T03:06:51;15.57;;;5.10;;
12707;SDS011;6418;50.824;4.718;2022-09-09T03:09:18;14.23;;;4.83;;
12707;SDS011;6418;50.824;4.718;2022-09-09T03:11:45;15.63;;;4.90;;
12707;SDS011;6418;50.824;4.718;2022-09-09T03:14:12;17.83;;;5.40;;
12707;SDS011;6418;50.824;4.718;2022-09-09T03:16:38;16.03;;;5.20;;
12707;SDS011;6418;50.824;4.718;2022-09-09T03:19:07;13.43;;;5.00;;
12707;SDS011;6418;50.824;4.718;2022-09-09T03:21:33;18.17;;;5.30;;
12707;SDS011;6418;50.824;4.718;2022-09-09T03:24:00;14.50;;;5.20;;
12707;SDS011;6418;50.824;4.718;2022-09-09T03:26:28;15.63;;;4.97;;
12707;SDS011;6418;50.824;4.718;2022-09-09T03:28:56;15.50;;;5.30;;
12707;SDS011;6418;50.824;4.718;2022-09-09T03:31:25;20.23;;;4.97;;
12707;SDS011;6418;50.824;4.718;2022-09-09T03:33:55;16.63;;;5.10;;
12707;SDS011;6418;50.824;4.718;2022-09-09T03:36:24;13.13;;;5.13;;
12707;SDS011;6418;50.824;4.718;2022-09-09T03:38:53;16.67;;;5.30;;
12707;SDS011;6418;50.824;4.718;2022-09-09T03:41:20;13.80;;;5.00;;
12707;SDS011;6418;50.824;4.718;2022-09-09T03:43:48;21.97;;;5.30;;
12707;SDS011;6418;50.824;4.718;2022-09-09T03:46:15;14.57;;;4.90;;
12707;SDS011;6418;50.824;4.718;2022-09-09T03:48:42;14.83;;;5.10;;
12707;SDS011;6418;50.824;4.718;2022-09-09T03:51:10;13.70;;;5.07;;
12707;SDS011;6418;50.824;4.718;2022-09-09T03:53:38;14.00;;;5.10;;
12707;SDS011;6418;50.824;4.718;2022-09-09T03:56:05;13.40;;;4.60;;
12707;SDS011;6418;50.824;4.718;2022-09-09T03:58:33;16.70;;;4.53;;
12707;SDS011;6418;50.824;4.718;2022-09-09T04:01:01;13.67;;;4.70;;
12707;SDS011;6418;50.824;4.718;2022-09-09T04:03:30;17.47;;;5.13;;
12707;SDS011;6418;50.824;4.718;2022-09-09T04:05:58;16.90;;;4.83;;
12707;SDS011;6418;50.824;4.718;2022-09-09T04:08:28;12.73;;;4.43;;
12707;SDS011;6418;50.824;4.718;2022-09-09T04:10:57;17.43;;;5.07;;
12707;SDS011;6418;50.824;4.718;2022-09-09T04:13:25;14.07;;;4.60;;
12707;SDS011;6418;50.824;4.718;2022-09-09T04:15:52;14.50;;;4.60;;
12707;SDS011;6418;50.824;4.718;2022-09-09T04:18:20;14.17;;;4.90;;
12707;SDS011;6418;50.824;4.718;2022-09-09T04:20:48;11.37;;;4.37;;
12707;SDS011;6418;50.824;4.718;2022-09-09T04:23:15;19.13;;;5.03;;
12707;SDS011;6418;50.824;4.718;2022-09-09T04:25:44;11.80;;;4.63;;
12707;SDS011;6418;50.824;4.718;2022-09-09T04:28:13;13.97;;;4.70;;
12707;SDS011;6418;50.824;4.718;2022-09-09T04:30:40;15.70;;;5.13;;
12707;SDS011;6418;50.824;4.718;2022-09-09T04:33:07;15.10;;;4.97;;
12707;SDS011;6418;50.824;4.718;2022-09-09T04:35:35;17.73;;;5.57;;
12707;SDS011;6418;50.824;4.718;2022-09-09T04:38:02;14.70;;;4.90;;
12707;SDS011;6418;50.824;4.718;2022-09-09T04:40:29;13.13;;;4.97;;
12707;SDS011;6418;50.824;4.718;2022-09-09T04:42:57;17.83;;;5.13;;
12707;SDS011;6418;50.824;4.718;2022-09-09T04:45:26;13.60;;;4.83;;
12707;SDS011;6418;50.824;4.718;2022-09-09T04:47:53;16.17;;;5.10;;
12707;SDS011;6418;50.824;4.718;2022-09-09T04:50:20;18.53;;;5.90;;
12707;SDS011;6418;50.824;4.718;2022-09-09T04:52:47;16.27;;;5.57;;
12707;SDS011;6418;50.824;4.718;2022-09-09T04:55:14;19.10;;;6.03;;
12707;SDS011;6418;50.824;4.718;2022-09-09T04:57:41;13.47;;;5.00;;
12707;SDS011;6418;50.824;4.718;2022-09-09T05:00:08;13.80;;;5.27;;
12707;SDS011;6418;50.824;4.718;2022-09-09T05:02:38;16.93;;;5.10;;
12707;SDS011;6418;50.824;4.718;2022-09-09T05:05:06;16.90;;;5.37;;
12707;SDS011;6418;50.824;4.718;2022-09-09T05:07:33;13.00;;;4.93;;
12707;SDS011;6418;50.824;4.718;2022-09-09T05:10:01;17.67;;;5.40;;
12707;SDS011;6418;50.824;4.718;2022-09-09T05:12:31;14.17;;;5.43;;
12707;SDS011;6418;50.824;4.718;2022-09-09T05:14:57;15.97;;;5.23;;
12707;SDS011;6418;50.824;4.718;2022-09-09T05:17:24;15.07;;;5.23;;
12707;SDS011;6418;50.824;4.718;2022-09-09T05:19:52;18.97;;;5.60;;
12707;SDS011;6418;50.824;4.718;2022-09-09T05:22:19;15.87;;;4.93;;
12707;SDS011;6418;50.824;4.718;2022-09-09T05:24:48;16.00;;;5.17;;
12707;SDS011;6418;50.824;4.718;2022-09-09T05:27:15;17.77;;;5.17;;
12707;SDS011;6418;50.824;4.718;2022-09-09T05:29:43;17.17;;;5.70;;
12707;SDS011;6418;50.824;4.718;2022-09-09T05:32:10;22.47;;;5.40;;
12707;SDS011;6418;50.824;4.718;2022-09-09T05:34:38;19.13;;;5.47;;
12707;SDS011;6418;50.824;4.718;2022-09-09T05:37:06;14.10;;;4.93;;
12707;SDS011;6418;50.824;4.718;2022-09-09T05:39:33;15.57;;;5.13;;
12707;SDS011;6418;50.824;4.718;2022-09-09T05:42:02;20.40;;;5.20;;
12707;SDS011;6418;50.824;4.718;2022-09-09T05:44:29;17.33;;;5.20;;
12707;SDS011;6418;50.824;4.718;2022-09-09T05:46:56;15.97;;;5.23;;
12707;SDS011;6418;50.824;4.718;2022-09-09T05:49:23;12.97;;;4.80;;
12707;SDS011;6418;50.824;4.718;2022-09-09T05:51:50;14.23;;;4.40;;
12707;SDS011;6418;50.824;4.718;2022-09-09T05:54:19;14.20;;;4.63;;
12707;SDS011;6418;50.824;4.718;2022-09-09T05:56:46;16.33;;;4.93;;
12707;SDS011;6418;50.824;4.718;2022-09-09T05:59:15;18.23;;;4.93;;
12707;SDS011;6418;50.824;4.718;2022-09-09T06:01:43;19.77;;;5.37;;
12707;SDS011;6418;50.824;4.718;2022-09-09T06:04:10;17.23;;;4.93;;
12707;SDS011;6418;50.824;4.718;2022-09-09T06:06:37;14.80;;;4.47;;
12707;SDS011;6418;50.824;4.718;2022-09-09T06:09:05;19.57;;;5.00;;
12707;SDS011;6418;50.824;4.718;2022-09-09T06:11:36;15.07;;;4.60;;
12707;SDS011;6418;50.824;4.718;2022-09-09T06:14:05;17.50;;;4.30;;
12707;SDS011;6418;50.824;4.718;2022-09-09T06:16:32;11.17;;;4.53;;
12707;SDS011;6418;50.824;4.718;2022-09-09T06:19:00;12.63;;;4.60;;
12707;SDS011;6418;50.824;4.718;2022-09-09T06:21:29;12.67;;;4.13;;
12707;SDS011;6418;50.824;4.718;2022-09-09T06:23:58;13.87;;;4.30;;
12707;SDS011;6418;50.824;4.718;2022-09-09T06:26:25;17.57;;;4.40;;
12707;SDS011;6418;50.824;4.718;2022-09-09T06:28:54;15.80;;;4.20;;
12707;SDS011;6418;50.824;4.718;2022-09-09T06:31:23;15.33;;;4.87;;
12707;SDS011;6418;50.824;4.718;2022-09-09T06:33:52;9.87;;;4.43;;
12707;SDS011;6418;50.824;4.718;2022-09-09T06:36:20;15.73;;;4.50;;
12707;SDS011;6418;50.824;4.718;2022-09-09T06:38:48;12.40;;;4.40;;
12707;SDS011;6418;50.824;4.718;2022-09-09T06:41:16;17.10;;;4.57;;
12707;SDS011;6418;50.824;4.718;2022-09-09T06:43:44;16.43;;;4.23;;
12707;SDS011;6418;50.824;4.718;2022-09-09T06:46:13;15.13;;;4.60;;
12707;SDS011;6418;50.824;4.718;2022-09-09T06:48:42;16.23;;;4.20;;
12707;SDS011;6418;50.824;4.718;2022-09-09T06:51:11;15.23;;;4.30;;
12707;SDS011;6418;50.824;4.718;2022-09-09T06:53:39;10.07;;;3.77;;
12707;SDS011;6418;50.824;4.718;2022-09-09T06:56:17;13.20;;;4.00;;
12707;SDS011;6418;50.824;4.718;2022-09-09T06:58:47;16.20;;;4.80;;
12707;SDS011;6418;50.824;4.718;2022-09-09T07:01:16;19.93;;;4.33;;
12707;SDS011;6418;50.824;4.718;2022-09-09T07:03:45;13.20;;;4.53;;
12707;SDS011;6418;50.824;4.718;2022-09-09T07:06:15;13.83;;;4.23;;
12707;SDS011;6418;50.824;4.718;2022-09-09T07:08:44;8.50;;;3.90;;
12707;SDS011;6418;50.824;4.718;2022-09-09T07:11:16;14.97;;;4.30;;
12707;SDS011;6418;50.824;4.718;2022-09-09T07:13:43;14.33;;;4.00;;
12707;SDS011;6418;50.824;4.718;2022-09-09T07:16:10;14.67;;;4.33;;
12707;SDS011;6418;50.824;4.718;2022-09-09T07:18:40;13.47;;;4.50;;
12707;SDS011;6418;50.824;4.718;2022-09-09T07:21:08;13.77;;;4.50;;
12707;SDS011;6418;50.824;4.718;2022-09-09T07:23:36;15.67;;;4.30;;
12707;SDS011;6418;50.824;4.718;2022-09-09T07:26:07;12.90;;;4.13;;
12707;SDS011;6418;50.824;4.718;2022-09-09T07:28:35;16.60;;;4.43;;
12707;SDS011;6418;50.824;4.718;2022-09-09T07:31:03;13.40;;;4.23;;
12707;SDS011;6418;50.824;4.718;2022-09-09T07:33:31;17.93;;;4.17;;
12707;SDS011;6418;50.824;4.718;2022-09-09T07:36:03;13.70;;;4.37;;
12707;SDS011;6418;50.824;4.718;2022-09-09T07:38:32;11.63;;;3.87;;
12707;SDS011;6418;50.824;4.718;2022-09-09T07:41:03;15.23;;;4.10;;
12707;SDS011;6418;50.824;4.718;2022-09-09T07:43:32;13.17;;;4.30;;
12707;SDS011;6418;50.824;4.718;2022-09-09T07:45:59;14.43;;;4.17;;
12707;SDS011;6418;50.824;4.718;2022-09-09T07:48:27;11.23;;;4.03;;
12707;SDS011;6418;50.824;4.718;2022-09-09T07:51:04;13.57;;;4.37;;
12707;SDS011;6418;50.824;4.718;2022-09-09T07:53:32;15.57;;;4.57;;
12707;SDS011;6418;50.824;4.718;2022-09-09T07:56:05;13.73;;;3.97;;
12707;SDS011;6418;50.824;4.718;2022-09-09T07:58:34;13.97;;;4.00;;
12707;SDS011;6418;50.824;4.718;2022-09-09T08:01:05;15.20;;;4.00;;
12707;SDS011;6418;50.824;4.718;2022-09-09T08:03:33;14.97;;;4.20;;
12707;SDS011;6418;50.824;4.718;2022-09-09T08:06:01;14.77;;;3.90;;
12707;SDS011;6418;50.824;4.718;2022-09-09T08:08:30;14.83;;;4.23;;
12707;SDS011;6418;50.824;4.718;2022-09-09T08:11:07;14.17;;;3.80;;
12707;SDS011;6418;50.824;4.718;2022-09-09T08:13:35;14.40;;;4.00;;
12707;SDS011;6418;50.824;4.718;2022-09-09T08:16:04;14.33;;;4.17;;
12707;SDS011;6418;50.824;4.718;2022-09-09T08:18:32;12.80;;;4.00;;
12707;SDS011;6418;50.824;4.718;2022-09-09T08:21:04;15.23;;;4.00;;
12707;SDS011;6418;50.824;4.718;2022-09-09T08:23:34;12.90;;;3.77;;
12707;SDS011;6418;50.824;4.718;2022-09-09T08:26:05;12.73;;;4.10;;
12707;SDS011;6418;50.824;4.718;2022-09-09T08:28:34;13.33;;;3.90;;
12707;SDS011;6418;50.824;4.718;2022-09-09T08:31:07;13.80;;;3.60;;
12707;SDS011;6418;50.824;4.718;2022-09-09T08:33:35;14.33;;;3.60;;
12707;SDS011;6418;50.824;4.718;2022-09-09T08:36:03;12.37;;;3.87;;
12707;SDS011;6418;50.824;4.718;2022-09-09T08:38:31;13.17;;;3.90;;
12707;SDS011;6418;50.824;4.718;2022-09-09T08:41:02;11.73;;;3.70;;
12707;SDS011;6418;50.824;4.718;2022-09-09T08:43:41;14.97;;;3.80;;
12707;SDS011;6418;50.824;4.718;2022-09-09T08:46:11;13.73;;;4.00;;
12707;SDS011;6418;50.824;4.718;2022-09-09T08:48:50;12.90;;;3.73;;
12707;SDS011;6418;50.824;4.718;2022-09-09T08:51:24;13.53;;;4.00;;
12707;SDS011;6418;50.824;4.718;2022-09-09T08:53:53;12.43;;;3.87;;
12707;SDS011;6418;50.824;4.718;2022-09-09T08:56:24;10.17;;;3.77;;
12707;SDS011;6418;50.824;4.718;2022-09-09T08:58:53;13.37;;;4.03;;
12707;SDS011;6418;50.824;4.718;2022-09-09T09:01:29;14.23;;;4.33;;
12707;SDS011;6418;50.824;4.718;2022-09-09T09:04:14;15.67;;;4.50;;
12707;SDS011;6418;50.824;4.718;2022-09-09T09:06:51;16.33;;;4.43;;
12707;SDS011;6418;50.824;4.718;2022-09-09T09:09:26;12.63;;;4.37;;
12707;SDS011;6418;50.824;4.718;2022-09-09T09:11:59;20.63;;;4.73;;
12707;SDS011;6418;50.824;4.718;2022-09-09T09:14:29;13.60;;;4.23;;
12707;SDS011;6418;50.824;4.718;2022-09-09T09:16:59;12.20;;;4.57;;
12707;SDS011;6418;50.824;4.718;2022-09-09T09:19:29;13.20;;;4.73;;
12707;SDS011;6418;50.824;4.718;2022-09-09T09:22:00;13.67;;;4.73;;
12707;SDS011;6418;50.824;4.718;2022-09-09T09:24:34;13.70;;;4.73;;
12707;SDS011;6418;50.824;4.718;2022-09-09T09:27:15;15.63;;;4.90;;
12707;SDS011;6418;50.824;4.718;2022-09-09T09:29:45;16.93;;;4.80;;
12707;SDS011;6418;50.824;4.718;2022-09-09T09:32:16;17.27;;;5.73;;
12707;SDS011;6418;50.824;4.718;2022-09-09T09:34:48;14.00;;;5.50;;
12707;SDS011;6418;50.824;4.718;2022-09-09T09:37:16;17.60;;;5.50;;
12707;SDS011;6418;50.824;4.718;2022-09-09T09:39:48;14.60;;;5.40;;
12707;SDS011;6418;50.824;4.718;2022-09-09T09:42:17;18.63;;;5.80;;
12707;SDS011;6418;50.824;4.718;2022-09-09T09:44:45;20.50;;;5.53;;
12707;SDS011;6418;50.824;4.718;2022-09-09T09:47:12;17.93;;;5.67;;
12707;SDS011;6418;50.824;4.718;2022-09-09T09:49:50;18.03;;;5.50;;
12707;SDS011;6418;50.824;4.718;2022-09-09T09:52:21;13.77;;;5.27;;
12707;SDS011;6418;50.824;4.718;2022-09-09T09:54:49;13.50;;;4.90;;
12707;SDS011;6418;50.824;4.718;2022-09-09T09:57:22;18.03;;;5.13;;
12707;SDS011;6418;50.824;4.718;2022-09-09T10:00:00;14.43;;;4.90;;
12707;SDS011;6418;50.824;4.718;2022-09-09T10:02:31;16.57;;;5.47;;
12707;SDS011;6418;50.824;4.718;2022-09-09T10:05:05;13.93;;;4.93;;
12707;SDS011;6418;50.824;4.718;2022-09-09T10:07:38;13.60;;;5.00;;
12707;SDS011;6418;50.824;4.718;2022-09-09T10:10:08;17.10;;;5.33;;
12707;SDS011;6418;50.824;4.718;2022-09-09T10:12:42;14.80;;;5.13;;
12707;SDS011;6418;50.824;4.718;2022-09-09T10:15:26;12.10;;;5.27;;
12707;SDS011;6418;50.824;4.718;2022-09-09T10:17:59;13.53;;;5.43;;
12707;SDS011;6418;50.824;4.718;2022-09-09T10:20:40;13.40;;;5.17;;
12707;SDS011;6418;50.824;4.718;2022-09-09T10:23:26;15.10;;;5.30;;
12707;SDS011;6418;50.824;4.718;2022-09-09T10:26:06;14.57;;;5.50;;
12707;SDS011;6418;50.824;4.718;2022-09-09T10:28:54;14.70;;;5.10;;
12707;SDS011;6418;50.824;4.718;2022-09-09T10:31:38;15.00;;;5.43;;
12707;SDS011;6418;50.824;4.718;2022-09-09T10:34:16;14.70;;;5.50;;
12707;SDS011;6418;50.824;4.718;2022-09-09T10:36:56;14.83;;;5.10;;
12707;SDS011;6418;50.824;4.718;2022-09-09T10:39:28;17.13;;;5.43;;
12707;SDS011;6418;50.824;4.718;2022-09-09T10:42:02;15.37;;;5.57;;
12707;SDS011;6418;50.824;4.718;2022-09-09T10:44:40;13.73;;;5.50;;
12707;SDS011;6418;50.824;4.718;2022-09-09T10:47:28;13.93;;;5.33;;
12707;SDS011;6418;50.824;4.718;2022-09-09T10:53:02;16.60;;;5.47;;
12707;SDS011;6418;50.824;4.718;2022-09-09T10:55:39;17.77;;;5.37;;
12707;SDS011;6418;50.824;4.718;2022-09-09T10:58:10;16.87;;;5.33;;
12707;SDS011;6418;50.824;4.718;2022-09-09T11:00:42;13.40;;;5.10;;
12707;SDS011;6418;50.824;4.718;2022-09-09T11:03:13;14.53;;;5.10;;
12707;SDS011;6418;50.824;4.718;2022-09-09T11:05:48;13.27;;;4.87;;
12707;SDS011;6418;50.824;4.718;2022-09-09T11:08:19;14.17;;;4.60;;
12707;SDS011;6418;50.824;4.718;2022-09-09T11:10:48;16.60;;;5.00;;
12707;SDS011;6418;50.824;4.718;2022-09-09T11:13:22;13.97;;;4.70;;
12707;SDS011;6418;50.824;4.718;2022-09-09T11:15:55;13.07;;;5.13;;
12707;SDS011;6418;50.824;4.718;2022-09-09T11:18:26;13.90;;;4.67;;
12707;SDS011;6418;50.824;4.718;2022-09-09T11:20:58;13.83;;;4.50;;
12707;SDS011;6418;50.824;4.718;2022-09-09T11:23:29;12.07;;;4.60;;
12707;SDS011;6418;50.824;4.718;2022-09-09T11:26:04;13.57;;;4.47;;
12707;SDS011;6418;50.824;4.718;2022-09-09T11:28:38;13.77;;;4.77;;
12707;SDS011;6418;50.824;4.718;2022-09-09T11:31:19;11.27;;;4.57;;
12707;SDS011;6418;50.824;4.718;2022-09-09T11:34:09;11.50;;;4.27;;
12707;SDS011;6418;50.824;4.718;2022-09-09T11:37:08;12.13;;;4.53;;
12707;SDS011;6418;50.824;4.718;2022-09-09T11:39:52;11.63;;;3.97;;
12707;SDS011;6418;50.824;4.718;2022-09-09T11:42:42;12.03;;;3.83;;
12707;SDS011;6418;50.824;4.718;2022-09-09T11:45:10;12.77;;;3.83;;
12707;SDS011;6418;50.824;4.718;2022-09-09T11:47:52;13.17;;;4.30;;
12707;SDS011;6418;50.824;4.718;2022-09-09T11:50:30;11.17;;;4.23;;
12707;SDS011;6418;50.824;4.718;2022-09-09T11:55:48;9.90;;;3.87;;
12707;SDS011;6418;50.824;4.718;2022-09-09T11:58:31;11.93;;;3.90;;
12707;SDS011;6418;50.824;4.718;2022-09-09T12:01:12;9.83;;;3.70;;
12707;SDS011;6418;50.824;4.718;2022-09-09T12:06:43;10.40;;;3.70;;
12707;SDS011;6418;50.824;4.718;2022-09-09T12:12:26;8.83;;;3.60;;
12707;SDS011;6418;50.824;4.718;2022-09-09T12:15:15;11.20;;;3.80;;
12707;SDS011;6418;50.824;4.718;2022-09-09T12:17:46;10.60;;;3.77;;
12707;SDS011;6418;50.824;4.718;2022-09-09T12:20:18;11.03;;;3.90;;
12707;SDS011;6418;50.824;4.718;2022-09-09T12:22:50;10.47;;;3.37;;
12707;SDS011;6418;50.824;4.718;2022-09-09T12:25:43;8.47;;;3.67;;
12707;SDS011;6418;50.824;4.718;2022-09-09T12:28:20;9.40;;;3.50;;
12707;SDS011;6418;50.824;4.718;2022-09-09T12:30:53;9.63;;;3.30;;
12707;SDS011;6418;50.824;4.718;2022-09-09T12:33:24;8.50;;;3.33;;
12707;SDS011;6418;50.824;4.718;2022-09-09T12:36:02;13.97;;;3.83;;
12707;SDS011;6418;50.824;4.718;2022-09-09T12:38:32;11.27;;;3.30;;
12707;SDS011;6418;50.824;4.718;2022-09-09T12:41:01;8.77;;;3.43;;
12707;SDS011;6418;50.824;4.718;2022-09-09T12:43:28;9.53;;;3.20;;
12707;SDS011;6418;50.824;4.718;2022-09-09T12:45:56;10.75;;;3.55;;
12707;SDS011;6418;50.824;4.718;2022-09-09T12:48:28;9.20;;;3.13;;
12707;SDS011;6418;50.824;4.718;2022-09-09T12:50:58;8.87;;;2.93;;
12707;SDS011;6418;50.824;4.718;2022-09-09T12:53:29;11.50;;;3.60;;
12707;SDS011;6418;50.824;4.718;2022-09-09T12:55:59;9.48;;;3.83;;
12707;SDS011;6418;50.824;4.718;2022-09-09T12:58:29;12.30;;;3.65;;
12707;SDS011;6418;50.824;4.718;2022-09-09T13:00:59;11.60;;;3.60;;
12707;SDS011;6418;50.824;4.718;2022-09-09T13:03:30;9.10;;;3.27;;
12707;SDS011;6418;50.824;4.718;2022-09-09T13:05:58;10.65;;;3.60;;
12707;SDS011;6418;50.824;4.718;2022-09-09T13:08:38;6.73;;;3.17;;
12707;SDS011;6418;50.824;4.718;2022-09-09T13:11:07;8.73;;;3.60;;
12707;SDS011;6418;50.824;4.718;2022-09-09T13:13:41;8.97;;;3.60;;
12707;SDS011;6418;50.824;4.718;2022-09-09T13:16:18;9.82;;;3.40;;
12707;SDS011;6418;50.824;4.718;2022-09-09T13:18:48;8.77;;;3.53;;
12707;SDS011;6418;50.824;4.718;2022-09-09T13:21:15;11.23;;;3.33;;
12707;SDS011;6418;50.824;4.718;2022-09-09T13:23:48;11.27;;;3.55;;
12707;SDS011;6418;50.824;4.718;2022-09-09T13:26:21;7.70;;;2.83;;
12707;SDS011;6418;50.824;4.718;2022-09-09T13:28:50;7.22;;;3.15;;
12707;SDS011;6418;50.824;4.718;2022-09-09T13:31:22;4.40;;;2.78;;
12707;SDS011;6418;50.824;4.718;2022-09-09T13:33:52;9.15;;;3.00;;
12707;SDS011;6418;50.824;4.718;2022-09-09T13:36:27;10.33;;;3.47;;
12707;SDS011;6418;50.824;4.718;2022-09-09T13:38:57;8.10;;;3.00;;
12707;SDS011;6418;50.824;4.718;2022-09-09T13:41:27;6.30;;;3.20;;
12707;SDS011;6418;50.824;4.718;2022-09-09T13:43:56;7.80;;;3.20;;
12707;SDS011;6418;50.824;4.718;2022-09-09T13:46:29;6.87;;;3.20;;
12707;SDS011;6418;50.824;4.718;2022-09-09T13:49:00;5.67;;;3.17;;
12707;SDS011;6418;50.824;4.718;2022-09-09T13:51:30;7.28;;;2.85;;
12707;SDS011;6418;50.824;4.718;2022-09-09T13:54:03;8.70;;;3.00;;
12707;SDS011;6418;50.824;4.718;2022-09-09T13:56:31;8.35;;;3.15;;
12707;SDS011;6418;50.824;4.718;2022-09-09T13:58:58;8.25;;;2.92;;
12707;SDS011;6418;50.824;4.718;2022-09-09T14:01:25;7.20;;;2.90;;
12707;SDS011;6418;50.824;4.718;2022-09-09T14:03:53;8.70;;;2.85;;
12707;SDS011;6418;50.824;4.718;2022-09-09T14:06:20;9.35;;;3.00;;
12707;SDS011;6418;50.824;4.718;2022-09-09T14:08:48;8.55;;;2.67;;
12707;SDS011;6418;50.824;4.718;2022-09-09T14:11:17;7.45;;;2.30;;
12707;SDS011;6418;50.824;4.718;2022-09-09T14:13:45;6.00;;;2.80;;
12707;SDS011;6418;50.824;4.718;2022-09-09T14:16:14;3.95;;;2.08;;
12707;SDS011;6418;50.824;4.718;2022-09-09T14:18:42;8.43;;;2.60;;
12707;SDS011;6418;50.824;4.718;2022-09-09T14:21:09;7.65;;;3.20;;
12707;SDS011;6418;50.824;4.718;2022-09-09T14:23:36;6.80;;;2.95;;
12707;SDS011;6418;50.824;4.718;2022-09-09T14:26:03;6.65;;;2.65;;
12707;SDS011;6418;50.824;4.718;2022-09-09T14:28:32;11.98;;;3.22;;
12707;SDS011;6418;50.824;4.718;2022-09-09T14:31:00;7.70;;;2.72;;
12707;SDS011;6418;50.824;4.718;2022-09-09T14:33:27;6.63;;;2.60;;
12707;SDS011;6418;50.824;4.718;2022-09-09T14:35:55;6.88;;;2.92;;
12707;SDS011;6418;50.824;4.718;2022-09-09T14:38:23;6.00;;;3.05;;
12707;SDS011;6418;50.824;4.718;2022-09-09T14:40:50;8.85;;;2.95;;
12707;SDS011;6418;50.824;4.718;2022-09-09T14:43:17;8.25;;;2.90;;
12707;SDS011;6418;50.824;4.718;2022-09-09T14:45:46;7.18;;;3.25;;
12707;SDS011;6418;50.824;4.718;2022-09-09T14:48:15;6.85;;;2.95;;
12707;SDS011;6418;50.824;4.718;2022-09-09T14:50:42;8.68;;;3.00;;
12707;SDS011;6418;50.824;4.718;2022-09-09T14:53:09;8.20;;;3.30;;
12707;SDS011;6418;50.824;4.718;2022-09-09T14:55:36;4.72;;;2.88;;
12707;SDS011;6418;50.824;4.718;2022-09-09T14:58:03;9.52;;;3.10;;
12707;SDS011;6418;50.824;4.718;2022-09-09T15:00:31;8.75;;;3.25;;
12707;SDS011;6418;50.824;4.718;2022-09-09T15:02:59;7.85;;;3.10;;
12707;SDS011;6418;50.824;4.718;2022-09-09T15:05:26;7.30;;;3.00;;
12707;SDS011;6418;50.824;4.718;2022-09-09T15:07:53;8.13;;;2.65;;
12707;SDS011;6418;50.824;4.718;2022-09-09T15:10:21;8.10;;;3.10;;
12707;SDS011;6418;50.824;4.718;2022-09-09T15:12:48;8.05;;;2.85;;
12707;SDS011;6418;50.824;4.718;2022-09-09T15:15:15;8.38;;;2.80;;
12707;SDS011;6418;50.824;4.718;2022-09-09T15:17:42;9.45;;;2.97;;
12707;SDS011;6418;50.824;4.718;2022-09-09T15:20:10;8.05;;;2.75;;
12707;SDS011;6418;50.824;4.718;2022-09-09T15:22:37;8.02;;;2.78;;
12707;SDS011;6418;50.824;4.718;2022-09-09T15:25:05;9.00;;;3.03;;
12707;SDS011;6418;50.824;4.718;2022-09-09T15:27:33;7.72;;;2.90;;